Time;durP1;ratioP1;P1;durP2;ratioP2;P2;SDS_P1;SDS_P2;PMS_P1;PMS_P2;Temp;Humidity;BMP_temperature;BMP_pressure;BME280_temperature;BME280_humidity;BME280_pressure;Samples;Min_cycle;Max_cycle;Signal;HPM_P1;HPM_P2
2021/11/30 00:02:24;;;;;;;4.00;1.27;;;;;;;;;;5122375;27;20230;-71
2021/11/30 00:04:51;;;;;;;4.20;1.50;;;;;;;;;;5124118;27;20208;-72
2021/11/30 00:07:18;;;;;;;4.10;1.17;;;;;;;;;;5122549;27;20207;-72
2021/11/30 00:12:28;;;;;;;2.60;1.03;;;;;;;;;;5126056;27;20207;-72
2021/11/30 00:14:57;;;;;;;6.20;1.43;;;;;;;;;;5123903;27;20674;-73
2021/11/30 00:17:24;;;;;;;4.57;1.33;;;;;;;;;;5125008;27;21043;-73
2021/11/30 00:19:51;;;;;;;6.03;1.40;;;;;;;;;;5125006;27;20259;-73
2021/11/30 00:22:20;;;;;;;6.20;1.30;;;;;;;;;;5128642;27;20281;-73
2021/11/30 00:24:47;;;;;;;5.57;1.50;;;;;;;;;;5123489;27;20347;-71
2021/11/30 00:27:14;;;;;;;10.77;2.23;;;;;;;;;;5125896;27;20207;-70
2021/11/30 00:29:41;;;;;;;5.40;1.23;;;;;;;;;;5125231;27;20663;-71
2021/11/30 00:32:10;;;;;;;6.90;1.47;;;;;;;;;;5126126;27;20208;-70
2021/11/30 00:34:37;;;;;;;4.60;1.43;;;;;;;;;;5122692;27;20203;-72
2021/11/30 00:37:04;;;;;;;4.87;1.00;;;;;;;;;;5123210;27;20210;-70
2021/11/30 00:39:31;;;;;;;3.97;1.27;;;;;;;;;;5121857;27;20232;-72
2021/11/30 00:41:59;;;;;;;8.80;1.87;;;;;;;;;;5123120;27;20276;-70
2021/11/30 00:44:28;;;;;;;7.23;1.43;;;;;;;;;;5122551;27;20298;-71
2021/11/30 00:46:56;;;;;;;5.17;1.67;;;;;;;;;;5122542;27;20207;-70
2021/11/30 00:49:25;;;;;;;3.70;1.30;;;;;;;;;;5120125;27;20293;-71
2021/11/30 00:51:53;;;;;;;5.17;1.60;;;;;;;;;;5126038;27;21148;-71
2021/11/30 00:54:21;;;;;;;4.93;1.20;;;;;;;;;;5123545;27;20765;-71
2021/11/30 00:56:50;;;;;;;8.60;1.53;;;;;;;;;;5123354;27;20207;-70
2021/11/30 00:59:16;;;;;;;2.13;1.30;;;;;;;;;;5125393;27;20260;-71
2021/11/30 01:01:45;;;;;;;7.47;1.50;;;;;;;;;;5123297;27;20703;-71
2021/11/30 01:04:12;;;;;;;4.33;1.50;;;;;;;;;;5122537;27;20246;-71
2021/11/30 01:06:41;;;;;;;11.33;1.77;;;;;;;;;;5121530;27;20207;-71
2021/11/30 01:09:08;;;;;;;5.43;1.60;;;;;;;;;;5122991;27;20679;-71
2021/11/30 01:11:35;;;;;;;6.43;1.67;;;;;;;;;;5124075;27;20224;-71
2021/11/30 01:14:02;;;;;;;5.40;1.47;;;;;;;;;;5125038;27;20210;-70
2021/11/30 01:16:28;;;;;;;4.30;1.67;;;;;;;;;;5121302;27;20235;-70
2021/11/30 01:18:55;;;;;;;6.97;1.93;;;;;;;;;;5122942;27;20227;-71
2021/11/30 01:21:21;;;;;;;4.23;1.27;;;;;;;;;;5125817;27;20220;-71
2021/11/30 01:23:49;;;;;;;9.03;2.10;;;;;;;;;;5124470;27;20218;-70
2021/11/30 01:26:15;;;;;;;7.37;1.83;;;;;;;;;;5124687;27;20224;-73
2021/11/30 01:28:42;;;;;;;6.67;1.60;;;;;;;;;;5125564;27;20219;-73
2021/11/30 01:31:08;;;;;;;5.23;2.10;;;;;;;;;;5123506;27;20358;-73
2021/11/30 01:33:35;;;;;;;4.80;1.60;;;;;;;;;;5123686;27;20220;-73
2021/11/30 01:36:02;;;;;;;5.30;1.63;;;;;;;;;;5125664;27;20685;-73
2021/11/30 01:38:30;;;;;;;3.53;1.80;;;;;;;;;;5124175;27;20227;-73
2021/11/30 01:41:00;;;;;;;4.43;1.70;;;;;;;;;;5125923;27;20342;-73
2021/11/30 01:43:35;;;;;;;4.93;1.53;;;;;;;;;;5125953;27;20233;-71
2021/11/30 01:46:07;;;;;;;5.73;1.83;;;;;;;;;;5127130;27;20203;-72
2021/11/30 01:51:17;;;;;;;7.57;2.30;;;;;;;;;;5124707;27;20321;-72
2021/11/30 01:53:44;;;;;;;3.70;2.63;;;;;;;;;;5125320;27;20308;-71
2021/11/30 01:56:11;;;;;;;6.20;3.20;;;;;;;;;;5123439;27;20986;-72
2021/11/30 01:58:38;;;;;;;5.60;3.17;;;;;;;;;;5123420;27;20211;-72
2021/11/30 02:01:06;;;;;;;6.87;4.17;;;;;;;;;;5127645;27;20231;-71
2021/11/30 02:03:33;;;;;;;5.90;4.40;;;;;;;;;;5126327;27;20614;-72
2021/11/30 02:05:59;;;;;;;6.60;4.17;;;;;;;;;;5123419;27;20421;-72
2021/11/30 02:08:26;;;;;;;6.33;5.10;;;;;;;;;;5121332;27;20208;-72
2021/11/30 02:10:54;;;;;;;6.53;5.10;;;;;;;;;;5123739;27;20220;-71
2021/11/30 02:13:23;;;;;;;11.53;5.63;;;;;;;;;;5124635;27;20314;-71
2021/11/30 02:15:52;;;;;;;7.93;5.33;;;;;;;;;;5124975;27;20224;-72
2021/11/30 02:18:22;;;;;;;7.00;4.80;;;;;;;;;;5122023;27;20276;-71
2021/11/30 02:20:53;;;;;;;8.67;5.20;;;;;;;;;;5125763;27;20581;-71
2021/11/30 02:23:31;;;;;;;8.70;4.93;;;;;;;;;;5123011;27;20232;-71
2021/11/30 02:25:58;;;;;;;8.80;5.77;;;;;;;;;;5122833;27;20224;-71
2021/11/30 02:28:24;;;;;;;8.00;5.20;;;;;;;;;;5123733;27;20219;-72
2021/11/30 02:30:50;;;;;;;8.53;5.07;;;;;;;;;;5123944;27;20211;-72
2021/11/30 02:33:17;;;;;;;6.60;5.63;;;;;;;;;;5124763;27;20215;-72
2021/11/30 02:35:43;;;;;;;7.33;5.90;;;;;;;;;;5121320;27;20216;-72
2021/11/30 02:38:11;;;;;;;7.33;6.63;;;;;;;;;;5122618;27;20264;-72
2021/11/30 02:40:38;;;;;;;9.53;6.50;;;;;;;;;;5122810;27;20877;-72
2021/11/30 02:43:06;;;;;;;7.47;6.73;;;;;;;;;;5122764;27;20235;-72
2021/11/30 02:45:32;;;;;;;11.93;6.40;;;;;;;;;;5119528;27;20261;-72
2021/11/30 02:47:59;;;;;;;7.43;5.67;;;;;;;;;;5121521;27;20304;-72
2021/11/30 02:50:27;;;;;;;8.87;6.70;;;;;;;;;;5123756;27;20207;-72
2021/11/30 02:52:54;;;;;;;8.00;6.80;;;;;;;;;;5121409;27;20235;-72
2021/11/30 02:55:22;;;;;;;7.07;6.33;;;;;;;;;;5120885;27;20280;-72
2021/11/30 02:57:49;;;;;;;6.20;5.60;;;;;;;;;;5118863;27;20602;-73
2021/11/30 03:00:16;;;;;;;6.53;5.93;;;;;;;;;;5122166;27;20210;-72
2021/11/30 03:02:42;;;;;;;8.17;6.43;;;;;;;;;;5123567;27;20224;-71
2021/11/30 03:05:09;;;;;;;5.83;5.23;;;;;;;;;;5121853;27;20204;-72
2021/11/30 03:07:38;;;;;;;6.00;5.40;;;;;;;;;;5122559;27;20215;-74
2021/11/30 03:10:06;;;;;;;8.23;7.43;;;;;;;;;;5124166;27;20223;-72
2021/11/30 03:12:34;;;;;;;7.97;7.23;;;;;;;;;;5121119;27;20209;-72
2021/11/30 03:15:06;;;;;;;7.03;6.33;;;;;;;;;;5119615;27;20231;-70
2021/11/30 03:17:33;;;;;;;8.67;7.83;;;;;;;;;;5121847;27;20701;-71
2021/11/30 03:19:59;;;;;;;7.80;7.00;;;;;;;;;;5125640;27;20718;-71
2021/11/30 03:22:26;;;;;;;8.53;7.63;;;;;;;;;;5124043;27;20236;-71
2021/11/30 03:24:52;;;;;;;7.87;7.13;;;;;;;;;;5122328;27;20880;-71
2021/11/30 03:27:18;;;;;;;9.53;8.63;;;;;;;;;;5124515;27;20204;-72
2021/11/30 03:29:46;;;;;;;10.13;9.13;;;;;;;;;;5123967;27;20257;-71
2021/11/30 03:33:58;;;;;;;7.97;7.27;;;;;;;;;;5122194;27;20249;-71
2021/11/30 03:34:58;;;;;;;9.57;8.57;;;;;;;;;;5120324;27;20301;-71
2021/11/30 03:37:25;;;;;;;9.87;8.87;;;;;;;;;;5123932;27;20240;-71
2021/11/30 03:39:52;;;;;;;9.37;8.07;;;;;;;;;;5121889;27;20652;-70
2021/11/30 03:42:18;;;;;;;9.90;8.90;;;;;;;;;;5123145;27;20257;-71
2021/11/30 03:44:46;;;;;;;10.40;9.13;;;;;;;;;;5127019;27;20199;-71
2021/11/30 03:47:13;;;;;;;11.17;9.97;;;;;;;;;;5121308;27;20208;-71
2021/11/30 03:49:39;;;;;;;10.97;9.87;;;;;;;;;;5123697;27;21284;-71
2021/11/30 03:52:06;;;;;;;12.73;11.33;;;;;;;;;;5122353;27;20725;-70
2021/11/30 03:54:33;;;;;;;13.03;11.70;;;;;;;;;;5120319;27;20818;-71
2021/11/30 03:57:00;;;;;;;15.53;13.07;;;;;;;;;;5121132;27;20307;-70
2021/11/30 03:59:26;;;;;;;11.57;10.37;;;;;;;;;;5120320;27;20212;-71
2021/11/30 04:01:54;;;;;;;18.70;13.13;;;;;;;;;;5123834;27;20204;-71
2021/11/30 04:04:23;;;;;;;17.70;13.60;;;;;;;;;;5120935;27;20232;-71
2021/11/30 04:06:51;;;;;;;16.13;12.80;;;;;;;;;;5122067;27;20211;-71
2021/11/30 04:09:18;;;;;;;19.47;13.97;;;;;;;;;;5120645;27;20210;-71
2021/11/30 04:11:45;;;;;;;25.07;14.97;;;;;;;;;;5121296;27;20207;-71
2021/11/30 04:14:12;;;;;;;18.70;13.87;;;;;;;;;;5119963;27;20316;-71
2021/11/30 04:16:39;;;;;;;17.00;11.60;;;;;;;;;;5123977;27;20209;-71
2021/11/30 04:19:07;;;;;;;13.57;9.07;;;;;;;;;;5122014;27;20220;-70
2021/11/30 04:21:34;;;;;;;12.00;7.93;;;;;;;;;;5121184;27;20254;-72
2021/11/30 04:24:01;;;;;;;16.10;8.97;;;;;;;;;;5125356;27;20228;-71
2021/11/30 04:26:27;;;;;;;10.50;7.40;;;;;;;;;;5119927;27;20374;-70
2021/11/30 04:28:54;;;;;;;9.27;6.53;;;;;;;;;;5120296;27;20228;-71
2021/11/30 04:31:21;;;;;;;14.33;6.93;;;;;;;;;;5119892;27;20224;-71
2021/11/30 04:33:47;;;;;;;12.17;6.77;;;;;;;;;;5121859;27;20224;-71
2021/11/30 04:36:15;;;;;;;10.83;5.97;;;;;;;;;;5120535;27;20622;-71
2021/11/30 04:38:42;;;;;;;13.90;6.57;;;;;;;;;;5124169;27;20227;-71
2021/11/30 04:41:08;;;;;;;9.60;6.00;;;;;;;;;;5121128;27;20286;-70
2021/11/30 04:43:35;;;;;;;9.43;5.90;;;;;;;;;;5117468;27;20221;-70
2021/11/30 04:46:06;;;;;;;12.97;6.23;;;;;;;;;;5121759;27;20213;-70
2021/11/30 04:48:34;;;;;;;10.37;5.80;;;;;;;;;;5124387;27;20872;-71
2021/11/30 04:51:02;;;;;;;9.73;6.10;;;;;;;;;;5122424;27;20204;-70
2021/11/30 04:53:31;;;;;;;9.53;5.60;;;;;;;;;;5122871;27;20731;-71
2021/11/30 04:55:58;;;;;;;11.30;6.23;;;;;;;;;;5124865;27;20260;-71
2021/11/30 04:58:25;;;;;;;10.20;6.17;;;;;;;;;;5124779;27;20835;-71
2021/11/30 05:00:51;;;;;;;9.60;6.00;;;;;;;;;;5127411;27;20213;-70
2021/11/30 05:03:19;;;;;;;12.10;5.23;;;;;;;;;;5122876;27;20252;-70
2021/11/30 05:05:45;;;;;;;8.33;6.70;;;;;;;;;;5122334;27;20280;-70
2021/11/30 05:08:12;;;;;;;10.17;6.10;;;;;;;;;;5123621;27;20203;-70
2021/11/30 05:10:40;;;;;;;11.03;6.23;;;;;;;;;;5124033;27;20225;-70
2021/11/30 05:13:06;;;;;;;11.43;6.07;;;;;;;;;;5124411;27;20208;-70
2021/11/30 05:15:32;;;;;;;11.63;6.50;;;;;;;;;;5123600;27;20254;-70
2021/11/30 05:17:59;;;;;;;10.87;6.67;;;;;;;;;;5126146;27;20229;-71
2021/11/30 05:20:26;;;;;;;14.00;6.97;;;;;;;;;;5123386;27;20212;-70
2021/11/30 05:22:54;;;;;;;15.47;7.63;;;;;;;;;;5125015;27;20229;-70
2021/11/30 05:25:21;;;;;;;13.13;7.23;;;;;;;;;;5122169;27;20303;-70
2021/11/30 05:27:49;;;;;;;18.63;8.20;;;;;;;;;;5125744;27;20651;-70
2021/11/30 05:30:18;;;;;;;12.90;7.50;;;;;;;;;;5123461;27;20211;-73
2021/11/30 05:32:45;;;;;;;13.83;9.53;;;;;;;;;;5122149;27;20225;-74
2021/11/30 05:35:12;;;;;;;9.83;7.57;;;;;;;;;;5124892;27;20214;-74
2021/11/30 05:37:38;;;;;;;12.47;8.10;;;;;;;;;;5122792;27;20245;-73
2021/11/30 05:40:06;;;;;;;14.13;7.47;;;;;;;;;;5122181;27;20229;-73
2021/11/30 05:42:33;;;;;;;14.87;9.20;;;;;;;;;;5122924;27;20859;-73
2021/11/30 05:45:01;;;;;;;15.83;8.43;;;;;;;;;;5120906;27;20800;-73
2021/11/30 05:47:27;;;;;;;13.27;8.13;;;;;;;;;;5120866;27;20777;-73
2021/11/30 05:49:54;;;;;;;12.43;7.97;;;;;;;;;;5121722;27;20662;-73
2021/11/30 05:52:20;;;;;;;12.27;7.73;;;;;;;;;;5121789;27;20208;-73
2021/11/30 05:54:46;;;;;;;15.77;7.33;;;;;;;;;;5122706;27;20262;-73
2021/11/30 05:57:18;;;;;;;11.67;7.17;;;;;;;;;;5122691;27;20208;-73
2021/11/30 05:59:45;;;;;;;12.13;7.33;;;;;;;;;;5120612;27;20228;-74
2021/11/30 06:02:13;;;;;;;10.47;6.40;;;;;;;;;;5121550;27;20262;-75
2021/11/30 06:04:39;;;;;;;9.73;6.70;;;;;;;;;;5122094;27;20243;-75
2021/11/30 06:07:06;;;;;;;12.60;6.50;;;;;;;;;;5121548;27;20273;-75
2021/11/30 06:09:33;;;;;;;15.23;7.90;;;;;;;;;;5120224;27;20285;-74
2021/11/30 06:12:00;;;;;;;14.17;7.47;;;;;;;;;;5119592;27;20288;-73
2021/11/30 06:14:26;;;;;;;11.43;6.33;;;;;;;;;;5121517;27;20234;-73
2021/11/30 06:16:53;;;;;;;7.30;5.10;;;;;;;;;;5121153;27;20285;-73
2021/11/30 06:19:21;;;;;;;10.00;4.90;;;;;;;;;;5120807;27;20216;-73
2021/11/30 06:21:48;;;;;;;8.63;6.50;;;;;;;;;;5120922;27;20205;-73
2021/11/30 06:24:15;;;;;;;8.00;5.60;;;;;;;;;;5120659;27;20263;-72
2021/11/30 06:26:42;;;;;;;9.30;5.77;;;;;;;;;;5124509;27;20652;-73
2021/11/30 06:29:08;;;;;;;10.33;5.53;;;;;;;;;;5118200;27;20262;-74
2021/11/30 06:31:35;;;;;;;12.97;6.20;;;;;;;;;;5122581;27;20233;-73
2021/11/30 06:34:01;;;;;;;8.77;5.87;;;;;;;;;;5123701;27;20501;-74
2021/11/30 06:36:29;;;;;;;13.17;6.87;;;;;;;;;;5118793;27;20631;-72
2021/11/30 06:38:57;;;;;;;8.73;5.53;;;;;;;;;;5121000;27;20236;-74
2021/11/30 06:41:24;;;;;;;6.83;4.97;;;;;;;;;;5119461;27;20944;-73
2021/11/30 06:43:50;;;;;;;9.27;5.50;;;;;;;;;;5123541;27;20308;-73
2021/11/30 06:46:19;;;;;;;12.50;5.70;;;;;;;;;;5120001;27;20691;-73
2021/11/30 06:48:45;;;;;;;7.87;5.13;;;;;;;;;;5117786;27;20715;-73
2021/11/30 06:51:14;;;;;;;8.37;5.43;;;;;;;;;;5120109;27;20695;-73
2021/11/30 06:53:42;;;;;;;8.37;4.63;;;;;;;;;;5122590;27;20568;-73
2021/11/30 06:56:10;;;;;;;10.17;5.27;;;;;;;;;;5121032;27;20228;-73
2021/11/30 06:58:36;;;;;;;5.97;3.23;;;;;;;;;;5121179;27;20245;-73
2021/11/30 07:01:04;;;;;;;4.40;2.60;;;;;;;;;;5117794;27;20677;-72
2021/11/30 07:03:30;;;;;;;3.40;1.83;;;;;;;;;;5120248;27;20229;-73
2021/11/30 07:05:59;;;;;;;4.83;2.30;;;;;;;;;;5119909;27;20486;-72
2021/11/30 07:08:47;;;;;;;6.13;2.63;;;;;;;;;;5118321;27;20214;-73
2021/11/30 07:11:21;;;;;;;4.47;2.03;;;;;;;;;;5119665;27;20226;-73
2021/11/30 07:13:48;;;;;;;5.10;1.87;;;;;;;;;;5120865;27;20196;-73
2021/11/30 07:16:15;;;;;;;4.30;1.40;;;;;;;;;;5118441;27;20208;-72
2021/11/30 07:18:41;;;;;;;5.30;1.10;;;;;;;;;;5116527;27;20237;-73
2021/11/30 07:21:08;;;;;;;5.20;1.33;;;;;;;;;;5117497;27;20211;-72
2021/11/30 07:23:35;;;;;;;5.47;1.03;;;;;;;;;;5115675;27;20236;-73
2021/11/30 07:26:02;;;;;;;8.03;1.10;;;;;;;;;;5117844;27;20648;-72
2021/11/30 07:28:32;;;;;;;4.13;1.20;;;;;;;;;;5118253;27;20224;-73
2021/11/30 07:31:00;;;;;;;6.17;1.23;;;;;;;;;;5117478;27;20202;-72
2021/11/30 07:33:27;;;;;;;8.53;1.87;;;;;;;;;;5117446;27;20228;-72
2021/11/30 07:35:53;;;;;;;7.20;1.50;;;;;;;;;;5116877;27;20213;-72
2021/11/30 07:38:20;;;;;;;4.63;1.20;;;;;;;;;;5115528;27;20226;-72
2021/11/30 07:40:46;;;;;;;7.13;1.50;;;;;;;;;;5116395;27;20225;-74
2021/11/30 07:43:12;;;;;;;8.37;1.43;;;;;;;;;;5118070;27;20204;-74
2021/11/30 07:45:43;;;;;;;6.13;1.10;;;;;;;;;;5118984;27;20643;-75
2021/11/30 07:48:09;;;;;;;8.27;1.30;;;;;;;;;;5116806;27;20231;-74
2021/11/30 07:50:35;;;;;;;6.33;1.43;;;;;;;;;;5119087;27;20266;-73
2021/11/30 07:53:02;;;;;;;10.40;1.43;;;;;;;;;;5118405;27;20207;-74
2021/11/30 07:55:29;;;;;;;8.30;1.50;;;;;;;;;;5118967;27;20225;-71
2021/11/30 07:57:55;;;;;;;8.97;1.83;;;;;;;;;;5118021;27;20933;-73
2021/11/30 08:00:22;;;;;;;7.67;1.13;;;;;;;;;;5118758;27;20202;-73
2021/11/30 08:02:49;;;;;;;10.80;1.73;;;;;;;;;;5117856;27;20347;-71
2021/11/30 08:05:16;;;;;;;9.37;1.70;;;;;;;;;;5117562;27;20231;-71
2021/11/30 08:07:43;;;;;;;6.80;1.40;;;;;;;;;;5119981;27;20623;-74
2021/11/30 08:10:14;;;;;;;7.20;1.70;;;;;;;;;;5116136;27;20355;-71
2021/11/30 08:12:41;;;;;;;9.50;1.60;;;;;;;;;;5118371;27;20248;-74
2021/11/30 08:15:09;;;;;;;7.03;1.50;;;;;;;;;;5116534;27;20204;-74
2021/11/30 08:17:36;;;;;;;6.77;1.67;;;;;;;;;;5118301;27;20310;-74
2021/11/30 08:20:05;;;;;;;7.40;1.20;;;;;;;;;;5116657;27;20891;-74
2021/11/30 08:22:31;;;;;;;7.00;1.50;;;;;;;;;;5120703;27;20214;-74
2021/11/30 08:24:58;;;;;;;7.27;1.10;;;;;;;;;;5123373;27;20309;-74
2021/11/30 08:27:24;;;;;;;11.03;1.73;;;;;;;;;;5121213;27;20640;-73
2021/11/30 08:29:51;;;;;;;4.10;1.43;;;;;;;;;;5122495;27;20209;-73
2021/11/30 08:32:20;;;;;;;5.20;1.47;;;;;;;;;;5121799;27;20296;-73
2021/11/30 08:34:47;;;;;;;6.03;1.40;;;;;;;;;;5124266;27;20589;-73
2021/11/30 08:37:14;;;;;;;4.77;1.10;;;;;;;;;;5122190;27;20257;-74
2021/11/30 08:39:41;;;;;;;5.40;0.90;;;;;;;;;;5121671;27;20232;-72
2021/11/30 08:42:10;;;;;;;5.97;1.07;;;;;;;;;;5120396;27;20218;-73
2021/11/30 08:44:36;;;;;;;9.23;2.13;;;;;;;;;;5120136;27;20227;-73
2021/11/30 08:47:05;;;;;;;5.93;1.17;;;;;;;;;;5124557;27;20546;-73
2021/11/30 08:49:32;;;;;;;7.00;0.90;;;;;;;;;;5120909;27;20694;-73
2021/11/30 08:51:59;;;;;;;3.93;1.20;;;;;;;;;;5121832;27;20204;-73
2021/11/30 08:54:29;;;;;;;5.23;0.90;;;;;;;;;;5119371;27;20528;-73
2021/11/30 08:56:55;;;;;;;4.87;1.03;;;;;;;;;;5117895;27;20542;-73
2021/11/30 08:59:22;;;;;;;8.40;1.60;;;;;;;;;;5120519;27;20208;-73
2021/11/30 09:01:48;;;;;;;6.30;1.57;;;;;;;;;;5123361;27;20209;-73
2021/11/30 09:04:15;;;;;;;7.90;1.40;;;;;;;;;;5121813;27;20764;-73
2021/11/30 09:06:43;;;;;;;7.90;1.40;;;;;;;;;;5123897;27;20241;-73
2021/11/30 09:09:12;;;;;;;12.47;1.20;;;;;;;;;;5122022;27;20668;-73
2021/11/30 09:11:41;;;;;;;7.27;1.50;;;;;;;;;;5123663;27;20209;-73
2021/11/30 09:14:09;;;;;;;7.13;2.13;;;;;;;;;;5123122;27;20200;-73
2021/11/30 09:16:37;;;;;;;7.80;1.53;;;;;;;;;;5124646;27;20299;-73
2021/11/30 09:19:04;;;;;;;9.90;1.80;;;;;;;;;;5120283;27;20228;-73
2021/11/30 09:21:30;;;;;;;12.63;2.47;;;;;;;;;;5120252;27;20209;-73
2021/11/30 09:23:58;;;;;;;7.23;1.57;;;;;;;;;;5121548;27;20753;-73
2021/11/30 09:26:25;;;;;;;8.37;1.17;;;;;;;;;;5119917;27;21060;-72
2021/11/30 09:28:53;;;;;;;8.47;1.20;;;;;;;;;;5121457;27;21001;-72
2021/11/30 09:31:20;;;;;;;7.13;1.50;;;;;;;;;;5122569;27;20253;-72
2021/11/30 09:33:48;;;;;;;9.03;1.57;;;;;;;;;;5121833;27;20228;-72
2021/11/30 09:36:16;;;;;;;4.67;1.37;;;;;;;;;;5120304;27;20224;-70
2021/11/30 09:38:43;;;;;;;9.40;1.03;;;;;;;;;;5123657;27;20333;-73
2021/11/30 09:41:10;;;;;;;4.30;0.93;;;;;;;;;;5123022;27;20251;-71
2021/11/30 09:43:46;;;;;;;8.87;1.17;;;;;;;;;;5123334;27;20275;-71
2021/11/30 09:46:14;;;;;;;6.43;1.30;;;;;;;;;;5121499;27;20238;-71
2021/11/30 09:48:40;;;;;;;5.47;1.30;;;;;;;;;;5121968;27;20739;-71
2021/11/30 09:51:07;;;;;;;7.93;1.23;;;;;;;;;;5120017;27;20668;-71
2021/11/30 09:53:34;;;;;;;6.20;1.17;;;;;;;;;;5121743;27;20746;-71
2021/11/30 09:56:00;;;;;;;9.83;1.20;;;;;;;;;;5121038;27;20252;-71
2021/11/30 09:58:27;;;;;;;4.37;1.00;;;;;;;;;;5120004;27;20214;-71
2021/11/30 10:00:56;;;;;;;4.53;0.90;;;;;;;;;;5120325;27;20214;-72
2021/11/30 10:03:26;;;;;;;6.43;1.10;;;;;;;;;;5119020;27;20217;-71
2021/11/30 10:05:55;;;;;;;7.93;1.50;;;;;;;;;;5121274;27;20672;-72
2021/11/30 10:08:27;;;;;;;6.13;1.33;;;;;;;;;;5120417;27;21163;-71
2021/11/30 10:10:54;;;;;;;9.43;1.30;;;;;;;;;;5120741;27;20805;-72
2021/11/30 10:13:21;;;;;;;3.63;1.40;;;;;;;;;;5119817;27;20206;-72
2021/11/30 10:15:54;;;;;;;9.93;1.10;;;;;;;;;;5121590;27;20214;-71
2021/11/30 10:18:24;;;;;;;7.70;1.57;;;;;;;;;;5121470;27;20224;-72
2021/11/30 10:20:54;;;;;;;6.13;1.20;;;;;;;;;;5119662;27;20241;-72
2021/11/30 10:23:23;;;;;;;6.90;1.33;;;;;;;;;;5116501;27;20199;-72
2021/11/30 10:25:50;;;;;;;5.53;1.40;;;;;;;;;;5117544;27;20229;-72
2021/11/30 10:28:21;;;;;;;5.63;1.30;;;;;;;;;;5120714;27;20205;-73
2021/11/30 10:30:50;;;;;;;9.30;1.60;;;;;;;;;;5120076;27;20214;-73
2021/11/30 10:33:18;;;;;;;6.50;1.80;;;;;;;;;;5118502;27;20216;-72
2021/11/30 10:35:45;;;;;;;3.80;1.00;;;;;;;;;;5119645;27;20202;-72
2021/11/30 10:38:13;;;;;;;10.30;1.27;;;;;;;;;;5117563;27;20882;-73
2021/11/30 10:40:41;;;;;;;5.30;1.50;;;;;;;;;;5120695;27;20221;-72
2021/11/30 10:43:09;;;;;;;3.63;1.13;;;;;;;;;;5122683;27;20943;-74
2021/11/30 10:45:43;;;;;;;11.80;1.53;;;;;;;;;;5118255;27;20230;-74
2021/11/30 10:48:13;;;;;;;10.73;2.10;;;;;;;;;;5117072;27;20245;-74
2021/11/30 10:50:42;;;;;;;5.83;1.00;;;;;;;;;;5118202;27;20289;-74
2021/11/30 10:53:21;;;;;;;9.53;1.93;;;;;;;;;;5118974;27;20294;-74
2021/11/30 10:55:51;;;;;;;5.53;1.10;;;;;;;;;;5123258;27;20230;-75
2021/11/30 10:58:19;;;;;;;5.33;0.97;;;;;;;;;;5119024;27;20215;-74
2021/11/30 11:00:47;;;;;;;5.77;1.27;;;;;;;;;;5121529;27;20211;-75
2021/11/30 11:03:17;;;;;;;9.20;1.30;;;;;;;;;;5123163;27;20674;-75
2021/11/30 11:05:46;;;;;;;9.07;0.90;;;;;;;;;;5121988;27;20232;-75
2021/11/30 11:08:14;;;;;;;7.77;1.27;;;;;;;;;;5121304;27;20695;-74
2021/11/30 11:10:45;;;;;;;7.27;1.63;;;;;;;;;;5119269;27;20228;-74
2021/11/30 11:13:24;;;;;;;12.20;1.73;;;;;;;;;;5119183;27;20208;-74
2021/11/30 11:15:54;;;;;;;8.83;1.83;;;;;;;;;;5120115;27;20282;-74
2021/11/30 11:18:23;;;;;;;10.33;2.33;;;;;;;;;;5122139;27;20688;-74
2021/11/30 11:20:50;;;;;;;9.57;1.87;;;;;;;;;;5118130;27;20254;-74
2021/11/30 11:23:21;;;;;;;9.53;1.73;;;;;;;;;;5119491;27;20212;-74
2021/11/30 11:25:52;;;;;;;9.73;1.80;;;;;;;;;;5118844;27;21015;-74
2021/11/30 11:28:20;;;;;;;11.60;2.07;;;;;;;;;;5122026;27;20315;-74
2021/11/30 11:30:47;;;;;;;13.10;1.73;;;;;;;;;;5122454;27;20556;-74
2021/11/30 11:33:16;;;;;;;10.83;1.53;;;;;;;;;;5119827;27;20230;-72
2021/11/30 11:35:42;;;;;;;13.37;2.27;;;;;;;;;;5119172;27;20207;-73
2021/11/30 11:38:10;;;;;;;11.43;1.87;;;;;;;;;;5117828;27;20225;-74
2021/11/30 11:40:37;;;;;;;13.67;2.10;;;;;;;;;;5121582;27;20226;-74
2021/11/30 11:43:05;;;;;;;9.50;1.97;;;;;;;;;;5117458;27;20884;-73
2021/11/30 11:45:31;;;;;;;12.20;2.10;;;;;;;;;;5119150;27;20276;-73
2021/11/30 11:48:04;;;;;;;10.07;1.70;;;;;;;;;;5119092;27;20239;-73
2021/11/30 11:50:49;;;;;;;12.40;1.97;;;;;;;;;;5119932;27;20200;-74
2021/11/30 11:53:27;;;;;;;6.13;1.47;;;;;;;;;;5118832;27;20277;-75
2021/11/30 11:56:12;;;;;;;15.63;1.67;;;;;;;;;;5121332;27;20764;-74
2021/11/30 11:58:41;;;;;;;15.80;2.33;;;;;;;;;;5126197;27;20214;-73
2021/11/30 12:01:13;;;;;;;14.80;2.50;;;;;;;;;;5122021;27;20705;-73
2021/11/30 12:04:04;;;;;;;10.20;1.97;;;;;;;;;;5125017;27;20220;-73
2021/11/30 12:06:37;;;;;;;13.30;2.10;;;;;;;;;;5097901;27;20867;-73
2021/11/30 12:09:14;;;;;;;9.77;1.93;;;;;;;;;;5125236;27;20993;-73
2021/11/30 12:11:41;;;;;;;13.07;2.43;;;;;;;;;;5124448;27;20239;-73
2021/11/30 12:14:13;;;;;;;8.30;1.30;;;;;;;;;;5122537;27;20221;-72
2021/11/30 12:17:03;;;;;;;6.90;1.27;;;;;;;;;;5122012;27;20197;-72
2021/11/30 12:19:31;;;;;;;7.93;1.57;;;;;;;;;;5124426;27;20214;-73
2021/11/30 12:21:58;;;;;;;4.90;1.07;;;;;;;;;;5123506;27;20488;-73
2021/11/30 12:24:33;;;;;;;4.20;1.50;;;;;;;;;;5120558;27;20285;-72
2021/11/30 12:27:00;;;;;;;12.50;1.50;;;;;;;;;;5126231;27;20932;-72
2021/11/30 12:29:37;;;;;;;7.50;1.20;;;;;;;;;;5123269;27;20623;-73
2021/11/30 12:32:22;;;;;;;8.43;1.20;;;;;;;;;;5126043;27;20211;-73
2021/11/30 12:34:49;;;;;;;6.73;1.37;;;;;;;;;;5122493;27;20332;-73
2021/11/30 12:37:23;;;;;;;8.57;1.77;;;;;;;;;;5122736;27;20217;-73
2021/11/30 12:39:58;;;;;;;10.83;1.40;;;;;;;;;;5121077;27;20236;-73
2021/11/30 12:42:25;;;;;;;9.00;1.73;;;;;;;;;;5121070;27;20220;-75
2021/11/30 12:44:54;;;;;;;9.97;1.50;;;;;;;;;;5124226;27;20206;-75
2021/11/30 12:47:23;;;;;;;7.27;1.63;;;;;;;;;;5116103;27;20224;-74
2021/11/30 12:49:49;;;;;;;11.37;2.40;;;;;;;;;;5119355;27;20231;-74
2021/11/30 12:52:18;;;;;;;7.97;1.40;;;;;;;;;;5123137;27;20250;-75
2021/11/30 12:54:47;;;;;;;11.03;2.00;;;;;;;;;;5123565;27;20226;-76
2021/11/30 12:57:18;;;;;;;6.80;1.33;;;;;;;;;;5122494;27;20620;-76
2021/11/30 12:59:58;;;;;;;8.77;1.10;;;;;;;;;;5122262;27;20640;-74
2021/11/30 13:02:31;;;;;;;4.30;1.20;;;;;;;;;;5122030;27;20254;-74
2021/11/30 13:05:22;;;;;;;10.10;2.00;;;;;;;;;;5122506;27;20198;-75
2021/11/30 13:08:08;;;;;;;9.83;1.20;;;;;;;;;;5122770;27;20292;-75
2021/11/30 13:10:47;;;;;;;5.03;0.80;;;;;;;;;;5122322;27;20216;-75
2021/11/30 13:13:18;;;;;;;5.60;0.90;;;;;;;;;;5120777;27;20214;-75
2021/11/30 13:15:48;;;;;;;8.10;1.37;;;;;;;;;;5120501;27;20206;-74
2021/11/30 13:18:16;;;;;;;8.20;1.80;;;;;;;;;;5122077;27;20285;-75
2021/11/30 13:20:45;;;;;;;9.83;1.20;;;;;;;;;;5123453;27;20821;-75
2021/11/30 13:23:11;;;;;;;8.20;1.27;;;;;;;;;;5123387;27;20881;-74
2021/11/30 13:25:40;;;;;;;6.30;0.90;;;;;;;;;;5121554;27;20243;-74
2021/11/30 13:28:10;;;;;;;8.70;1.33;;;;;;;;;;5124181;27;20212;-74
2021/11/30 13:30:37;;;;;;;10.27;1.60;;;;;;;;;;5120840;27;20619;-75
2021/11/30 13:33:08;;;;;;;12.50;2.03;;;;;;;;;;5122114;27;20225;-74
2021/11/30 13:35:36;;;;;;;10.73;1.90;;;;;;;;;;5121647;27;20308;-75
2021/11/30 13:38:09;;;;;;;12.40;1.90;;;;;;;;;;5120339;27;20260;-75
2021/11/30 13:40:40;;;;;;;10.97;1.80;;;;;;;;;;5121150;27;20731;-75
2021/11/30 13:43:09;;;;;;;13.87;2.10;;;;;;;;;;5121018;27;20231;-76
2021/11/30 13:45:40;;;;;;;10.63;1.97;;;;;;;;;;5121422;27;20264;-75
2021/11/30 13:48:09;;;;;;;13.00;2.10;;;;;;;;;;5121585;27;20248;-75
2021/11/30 13:50:39;;;;;;;10.03;2.13;;;;;;;;;;5122427;27;20710;-76
2021/11/30 13:53:11;;;;;;;10.87;2.17;;;;;;;;;;5120353;27;20695;-74
2021/11/30 13:55:39;;;;;;;13.40;2.37;;;;;;;;;;5120304;27;20212;-73
2021/11/30 13:58:13;;;;;;;10.30;2.30;;;;;;;;;;5119421;27;20671;-73
2021/11/30 14:00:46;;;;;;;9.00;1.80;;;;;;;;;;5121435;27;20273;-74
2021/11/30 14:03:14;;;;;;;12.93;2.60;;;;;;;;;;5122618;27;20223;-73
2021/11/30 14:05:41;;;;;;;14.10;2.20;;;;;;;;;;5122519;27;20223;-73
2021/11/30 14:08:07;;;;;;;8.57;1.83;;;;;;;;;;5120691;27;20481;-73
2021/11/30 14:10:41;;;;;;;5.50;1.53;;;;;;;;;;5120145;27;20242;-74
2021/11/30 14:13:07;;;;;;;5.30;1.50;;;;;;;;;;5120708;27;20952;-73
2021/11/30 14:15:34;;;;;;;8.13;1.33;;;;;;;;;;5119687;27;20585;-73
2021/11/30 14:18:02;;;;;;;6.27;1.00;;;;;;;;;;5123656;27;20239;-74
2021/11/30 14:20:31;;;;;;;6.87;0.97;;;;;;;;;;5116834;27;20235;-73
2021/11/30 14:22:57;;;;;;;6.37;1.00;;;;;;;;;;5120173;27;20211;-74
2021/11/30 14:25:25;;;;;;;3.50;0.87;;;;;;;;;;5119119;27;20726;-73
2021/11/30 14:27:53;;;;;;;4.53;0.80;;;;;;;;;;5117995;27;20667;-73
2021/11/30 14:30:23;;;;;;;8.63;1.50;;;;;;;;;;5119612;27;20611;-72
2021/11/30 14:33:01;;;;;;;8.67;1.10;;;;;;;;;;5118546;27;20224;-75
2021/11/30 14:35:39;;;;;;;3.93;1.20;;;;;;;;;;5118440;27;20208;-73
2021/11/30 14:38:06;;;;;;;5.40;1.10;;;;;;;;;;5120862;27;20683;-74
2021/11/30 14:40:37;;;;;;;4.23;0.80;;;;;;;;;;5120283;27;20963;-75
2021/11/30 14:43:09;;;;;;;4.80;1.10;;;;;;;;;;5119554;27;20314;-73
2021/11/30 14:45:43;;;;;;;2.33;0.53;;;;;;;;;;5117602;27;20214;-73
2021/11/30 14:48:13;;;;;;;3.97;0.70;;;;;;;;;;5119104;27;20228;-74
2021/11/30 14:50:45;;;;;;;6.23;0.80;;;;;;;;;;5122337;27;20210;-74
2021/11/30 14:53:14;;;;;;;3.13;0.50;;;;;;;;;;5120321;27;20632;-75